Time;durP1;ratioP1;P1;durP2;ratioP2;P2;SDS_P1;SDS_P2;PMS_P1;PMS_P2;Temp;Humidity;BMP_temperature;BMP_pressure;BME280_temperature;BME280_humidity;BME280_pressure;Samples;Min_cycle;Max_cycle;Signal;HPM_P1;HPM_P2
2023/06/25 05:34:10;;;;;;;;;;;;;;;;;;;;;
2023/06/25 05:36:51;;;;;;;;;23.67;20.67;;;;;;;;5051493;28;72049;-85
2023/06/25 05:42:57;;;;;;;;;;;;;;;;;;;;;
2023/06/25 05:45:47;;;;;;;;;4.75;4.00;;;;;;;;4958685;28;74965;-84
2023/06/25 05:48:32;;;;;;;;;4.75;4.75;;;;;;;;4989012;28;44955;-82
2023/06/25 05:57:46;;;;;;;;;6.25;4.75;;;;;;;;4935148;28;45577;-82
2023/06/25 06:00:40;;;;;;;;;5.75;5.75;;;;;;;;4891036;28;45768;-83
2023/06/25 06:03:23;;;;;;;;;8.00;6.75;;;;;;;;4897790;28;45314;-83
2023/06/25 06:05:56;;;;;;;;;10.50;9.50;;;;;;;;4902225;28;45046;-84
2023/06/25 06:08:21;;;;;;;;;6.25;6.25;;;;;;;;4922487;28;45941;-82
2023/06/25 06:14:34;;;;;;;;;7.25;7.25;;;;;;;;4960861;28;45463;-82
2023/06/25 06:17:26;;;;;;;;;8.75;6.00;;;;;;;;4960629;28;45330;-83
2023/06/25 06:19:52;;;;;;;;;4.50;4.50;;;;;;;;5041132;28;45709;-82
2023/06/25 06:22:24;;;;;;;;;7.00;7.00;;;;;;;;5056825;28;45314;-83
2023/06/25 06:28:34;;;;;;;;;9.00;8.00;;;;;;;;4970383;28;45191;-86
2023/06/25 06:31:45;;;;;;;;;4.00;4.00;;;;;;;;5019179;28;45953;-83
2023/06/25 06:37:56;;;;;;;;;8.00;7.00;;;;;;;;4998072;28;45176;-83
2023/06/25 06:43:58;;;;;;;;;5.50;5.50;;;;;;;;5044509;28;46142;-80
2023/06/25 06:47:14;;;;;;;;;6.25;6.25;;;;;;;;5012676;28;45914;-82
2023/06/25 06:53:00;;;;;;;;;6.75;5.00;;;;;;;;4967258;28;45626;-82
2023/06/25 06:55:26;;;;;;;;;9.33;6.00;;;;;;;;4983373;28;45932;-80
2023/06/25 06:57:51;;;;;;;;;8.25;6.00;;;;;;;;5027060;28;44847;-78
2023/06/25 07:00:18;;;;;;;;;7.00;5.75;;;;;;;;5049628;28;45495;-77
2023/06/25 07:02:43;;;;;;;;;9.67;7.67;;;;;;;;5038869;28;46124;-77
2023/06/25 07:05:08;;;;;;;;;10.00;8.00;;;;;;;;5052631;28;46508;-78
2023/06/25 07:07:34;;;;;;;;;7.67;6.67;;;;;;;;5051564;28;45497;-77
2023/06/25 07:09:59;;;;;;;;;7.50;6.50;;;;;;;;5052225;28;46501;-78
2023/06/25 07:12:24;;;;;;;;;8.33;8.33;;;;;;;;5052450;28;45537;-77
2023/06/25 07:14:50;;;;;;;;;10.33;8.00;;;;;;;;5053021;28;46766;-75
2023/06/25 07:17:15;;;;;;;;;11.33;10.00;;;;;;;;5041285;28;45773;-79
2023/06/25 07:19:40;;;;;;;;;7.67;7.67;;;;;;;;5036569;28;45605;-77
2023/06/25 07:22:07;;;;;;;;;9.00;7.33;;;;;;;;5034295;28;45944;-81
2023/06/25 07:24:32;;;;;;;;;15.33;13.33;;;;;;;;5053229;28;45654;-80
2023/06/25 07:26:57;;;;;;;;;41.67;34.00;;;;;;;;5060963;28;45513;-78
2023/06/25 07:29:23;;;;;;;;;164.00;157.33;;;;;;;;5053409;28;45595;-83
2023/06/25 07:31:52;;;;;;;;;40.67;35.33;;;;;;;;5043117;28;46103;-80
2023/06/25 07:34:23;;;;;;;;;10.33;10.33;;;;;;;;5057118;28;45784;-86
2023/06/25 07:36:49;;;;;;;;;60.00;48.25;;;;;;;;5066686;28;45881;-83
2023/06/25 07:39:24;;;;;;;;;74.00;63.00;;;;;;;;5070792;28;45640;-82
2023/06/25 07:41:49;;;;;;;;;15.00;14.67;;;;;;;;5042951;28;45804;-82
2023/06/25 07:44:15;;;;;;;;;13.33;12.00;;;;;;;;5043988;28;45945;-82
2023/06/25 07:46:40;;;;;;;;;17.67;16.67;;;;;;;;5065817;28;45327;-82
2023/06/25 07:49:05;;;;;;;;;8.00;7.00;;;;;;;;5043305;28;45345;-82
2023/06/25 07:51:30;;;;;;;;;7.00;7.00;;;;;;;;5062590;28;45910;-81
2023/06/25 07:53:56;;;;;;;;;9.00;9.00;;;;;;;;5066532;28;46051;-81
2023/06/25 07:56:21;;;;;;;;;12.67;12.67;;;;;;;;5048750;28;45319;-80
2023/06/25 07:58:46;;;;;;;;;13.67;12.00;;;;;;;;5053262;28;45836;-80
2023/06/25 08:01:12;;;;;;;;;9.67;9.67;;;;;;;;5055255;28;45988;-81
2023/06/25 08:03:37;;;;;;;;;42.33;35.00;;;;;;;;5033684;28;45808;-79
2023/06/25 08:06:02;;;;;;;;;9.00;8.00;;;;;;;;5054229;28;45894;-81
2023/06/25 08:08:27;;;;;;;;;10.67;10.33;;;;;;;;5052079;28;45585;-80
2023/06/25 08:10:53;;;;;;;;;12.00;11.00;;;;;;;;5035522;28;46388;-80
2023/06/25 08:13:20;;;;;;;;;10.67;10.00;;;;;;;;5055960;28;46128;-82
2023/06/25 08:15:45;;;;;;;;;17.33;15.33;;;;;;;;5036976;28;45905;-82
2023/06/25 08:18:10;;;;;;;;;11.00;10.00;;;;;;;;5057086;28;45901;-79
2023/06/25 08:20:36;;;;;;;;;16.33;14.00;;;;;;;;5051149;28;45421;-78
2023/06/25 08:23:01;;;;;;;;;9.33;9.33;;;;;;;;5058629;28;45641;-80
2023/06/25 08:25:27;;;;;;;;;8.00;8.00;;;;;;;;5050698;28;45703;-78
2023/06/25 08:27:52;;;;;;;;;7.33;7.33;;;;;;;;5051578;28;45548;-81
2023/06/25 08:30:21;;;;;;;;;5.00;5.00;;;;;;;;5050158;28;46575;-82
2023/06/25 08:32:46;;;;;;;;;12.00;12.00;;;;;;;;5055465;28;45864;-80
2023/06/25 08:35:12;;;;;;;;;9.00;9.00;;;;;;;;5053729;28;45724;-80
2023/06/25 08:37:37;;;;;;;;;11.67;11.67;;;;;;;;5045219;28;45610;-81
2023/06/25 08:40:02;;;;;;;;;8.00;8.00;;;;;;;;5049325;28;45838;-80
2023/06/25 08:42:32;;;;;;;;;8.00;5.67;;;;;;;;5054557;28;46547;-80
2023/06/25 08:44:57;;;;;;;;;12.00;10.00;;;;;;;;5038679;28;45402;-85
2023/06/25 08:47:25;;;;;;;;;4.33;4.33;;;;;;;;5057213;28;45421;-79
2023/06/25 08:49:53;;;;;;;;;7.33;7.33;;;;;;;;5050593;28;45560;-78
2023/06/25 08:52:23;;;;;;;;;7.00;7.00;;;;;;;;5050086;28;45915;-84
2023/06/25 08:54:49;;;;;;;;;9.00;7.00;;;;;;;;5049748;28;45620;-81
2023/06/25 08:57:14;;;;;;;;;7.33;5.33;;;;;;;;5048467;28;45730;-78
2023/06/25 08:59:39;;;;;;;;;9.00;9.00;;;;;;;;5046786;28;46526;-78
2023/06/25 09:02:05;;;;;;;;;10.00;10.00;;;;;;;;5048525;28;45813;-79
2023/06/25 09:04:30;;;;;;;;;8.00;6.67;;;;;;;;5046941;28;45497;-78
2023/06/25 09:07:04;;;;;;;;;10.00;8.00;;;;;;;;5040880;28;45701;-75
2023/06/25 09:09:29;;;;;;;;;8.67;8.67;;;;;;;;5040794;28;45825;-80
2023/06/25 09:11:54;;;;;;;;;8.00;8.00;;;;;;;;5049506;28;46039;-78
2023/06/25 09:14:19;;;;;;;;;9.00;9.00;;;;;;;;5045738;28;45605;-79
2023/06/25 09:16:46;;;;;;;;;7.67;7.67;;;;;;;;5049861;28;45430;-77
2023/06/25 09:19:18;;;;;;;;;9.33;8.67;;;;;;;;5050619;28;45686;-86
2023/06/25 09:21:43;;;;;;;;;6.67;6.67;;;;;;;;5051841;28;47953;-81
2023/06/25 09:24:15;;;;;;;;;9.33;8.00;;;;;;;;5035351;28;45308;-82
2023/06/25 09:26:47;;;;;;;;;9.00;9.00;;;;;;;;5044313;28;45529;-77
2023/06/25 09:29:12;;;;;;;;;7.33;7.33;;;;;;;;5043484;28;46122;-76
2023/06/25 09:31:40;;;;;;;;;8.00;7.67;;;;;;;;5050519;28;45881;-76
2023/06/25 09:34:06;;;;;;;;;9.33;8.33;;;;;;;;5049811;28;45963;-77
2023/06/25 09:36:35;;;;;;;;;7.33;7.33;;;;;;;;5048594;28;46105;-77
2023/06/25 09:39:01;;;;;;;;;8.00;7.00;;;;;;;;5048885;28;45703;-77
2023/06/25 09:41:27;;;;;;;;;8.00;8.00;;;;;;;;5053030;28;46174;-77
2023/06/25 09:43:55;;;;;;;;;6.00;6.00;;;;;;;;5051125;28;45703;-78
2023/06/25 09:46:21;;;;;;;;;8.00;8.00;;;;;;;;5048972;28;45497;-78
2023/06/25 09:48:47;;;;;;;;;7.67;7.67;;;;;;;;5050648;28;45691;-76
2023/06/25 09:51:14;;;;;;;;;8.67;8.67;;;;;;;;5054812;28;45866;-81
2023/06/25 09:53:42;;;;;;;;;8.67;8.67;;;;;;;;5053141;28;45798;-77
2023/06/25 09:56:08;;;;;;;;;10.33;10.00;;;;;;;;5046585;28;45896;-81
2023/06/25 09:58:34;;;;;;;;;8.00;5.00;;;;;;;;5044691;28;45860;-78
2023/06/25 10:00:59;;;;;;;;;8.33;8.00;;;;;;;;5036709;28;46856;-78
2023/06/25 10:03:25;;;;;;;;;7.00;6.00;;;;;;;;5043265;28;45789;-76
2023/06/25 10:05:51;;;;;;;;;6.33;6.33;;;;;;;;5041845;28;45906;-78
2023/06/25 10:08:18;;;;;;;;;8.67;8.67;;;;;;;;5041330;28;45463;-76
2023/06/25 10:10:54;;;;;;;;;10.00;9.33;;;;;;;;5034286;28;45476;-79
2023/06/25 10:13:21;;;;;;;;;6.67;6.67;;;;;;;;5039878;28;46058;-76
2023/06/25 10:15:46;;;;;;;;;8.33;8.33;;;;;;;;5040487;28;45519;-77
2023/06/25 10:18:22;;;;;;;;;8.67;8.00;;;;;;;;5041722;28;45535;-77
2023/06/25 10:20:47;;;;;;;;;9.00;9.00;;;;;;;;5046981;28;45923;-79
2023/06/25 10:23:13;;;;;;;;;9.33;8.00;;;;;;;;5048684;28;45510;-77
2023/06/25 10:25:39;;;;;;;;;5.67;5.67;;;;;;;;5044971;28;45993;-77
2023/06/25 10:28:08;;;;;;;;;10.00;10.00;;;;;;;;5046627;28;45874;-77
2023/06/25 10:30:49;;;;;;;;;3.33;3.33;;;;;;;;5043859;28;46170;-80
2023/06/25 10:33:15;;;;;;;;;9.00;9.00;;;;;;;;5047690;28;45506;-79
2023/06/25 10:35:41;;;;;;;;;11.00;10.67;;;;;;;;5047236;28;45723;-78
2023/06/25 10:38:07;;;;;;;;;9.00;8.00;;;;;;;;5047769;28;45491;-77
2023/06/25 10:40:34;;;;;;;;;12.67;11.67;;;;;;;;5042498;28;46165;-79
2023/06/25 10:42:59;;;;;;;;;6.67;6.67;;;;;;;;5044137;28;45693;-77
2023/06/25 10:45:24;;;;;;;;;7.33;7.33;;;;;;;;5044574;28;45805;-80
2023/06/25 10:47:59;;;;;;;;;8.33;8.33;;;;;;;;5039002;28;45401;-76
2023/06/25 10:50:24;;;;;;;;;6.67;6.00;;;;;;;;5038793;28;46476;-79
2023/06/25 10:52:50;;;;;;;;;9.67;8.00;;;;;;;;5030691;28;45808;-80
2023/06/25 10:55:15;;;;;;;;;8.00;7.00;;;;;;;;5044351;28;45702;-78
2023/06/25 10:57:41;;;;;;;;;9.33;8.67;;;;;;;;5046123;28;45772;-77
2023/06/25 11:00:06;;;;;;;;;8.33;8.33;;;;;;;;5049125;28;47198;-77
2023/06/25 11:02:31;;;;;;;;;8.67;8.33;;;;;;;;5057057;28;45761;-77
2023/06/25 11:04:58;;;;;;;;;9.33;9.33;;;;;;;;5049811;28;45816;-77
2023/06/25 11:07:23;;;;;;;;;11.67;11.67;;;;;;;;5051601;28;45768;-77
2023/06/25 11:09:55;;;;;;;;;7.33;7.33;;;;;;;;5052983;27;45934;-76
2023/06/25 11:12:21;;;;;;;;;8.00;8.00;;;;;;;;5050441;28;45465;-77
2023/06/25 11:14:46;;;;;;;;;9.00;8.67;;;;;;;;5042253;28;46646;-77
2023/06/25 11:17:17;;;;;;;;;13.67;12.67;;;;;;;;5051951;28;45771;-80
2023/06/25 11:19:43;;;;;;;;;5.00;5.00;;;;;;;;5051498;28;46176;-79
2023/06/25 11:22:09;;;;;;;;;7.67;7.67;;;;;;;;5049713;28;45511;-78
2023/06/25 11:24:35;;;;;;;;;12.67;12.00;;;;;;;;5051363;28;45520;-77
2023/06/25 11:27:00;;;;;;;;;10.00;9.00;;;;;;;;5050381;28;45916;-77
2023/06/25 11:29:34;;;;;;;;;11.00;11.00;;;;;;;;5045458;28;45825;-78
2023/06/25 11:32:00;;;;;;;;;9.00;8.00;;;;;;;;5029386;28;45860;-81
2023/06/25 11:34:25;;;;;;;;;8.33;8.33;;;;;;;;5049450;28;45307;-78
2023/06/25 11:36:51;;;;;;;;;7.33;7.33;;;;;;;;5050534;28;45489;-79
2023/06/25 11:39:16;;;;;;;;;10.67;8.33;;;;;;;;5053516;28;45902;-77
2023/06/25 11:41:45;;;;;;;;;13.00;10.00;;;;;;;;5047275;28;45793;-78
2023/06/25 11:44:22;;;;;;;;;9.00;9.00;;;;;;;;5050795;28;45814;-76
2023/06/25 11:46:51;;;;;;;;;9.67;7.67;;;;;;;;5055404;28;46453;-78
2023/06/25 11:49:18;;;;;;;;;9.00;9.00;;;;;;;;5032033;28;47683;-76
2023/06/25 11:51:43;;;;;;;;;6.33;6.00;;;;;;;;5048049;28;46047;-77
2023/06/25 11:54:08;;;;;;;;;10.00;10.00;;;;;;;;5032002;28;45572;-77
2023/06/25 11:56:33;;;;;;;;;7.50;7.50;;;;;;;;5049111;28;45636;-79
2023/06/25 11:58:58;;;;;;;;;12.67;10.00;;;;;;;;5030785;28;48231;-76
2023/06/25 12:01:24;;;;;;;;;9.00;8.00;;;;;;;;5056495;28;45572;-78
2023/06/25 12:03:50;;;;;;;;;11.00;10.00;;;;;;;;5050521;28;45422;-76
2023/06/25 12:06:15;;;;;;;;;11.00;11.00;;;;;;;;5049192;28;45450;-77
2023/06/25 12:08:40;;;;;;;;;12.00;11.00;;;;;;;;5048846;28;46253;-77
2023/06/25 12:11:05;;;;;;;;;10.33;9.67;;;;;;;;5049045;28;45570;-78
2023/06/25 12:13:30;;;;;;;;;10.33;10.33;;;;;;;;5032281;28;45535;-76
2023/06/25 12:15:56;;;;;;;;;8.00;7.67;;;;;;;;5029205;28;46216;-78
2023/06/25 12:18:22;;;;;;;;;9.00;8.00;;;;;;;;5049375;28;45988;-79
2023/06/25 12:20:47;;;;;;;;;11.00;9.00;;;;;;;;5049759;28;45974;-79
2023/06/25 12:23:12;;;;;;;;;9.67;8.00;;;;;;;;5029878;28;45839;-78
2023/06/25 12:25:39;;;;;;;;;8.33;8.33;;;;;;;;5042974;28;45864;-78
2023/06/25 12:28:04;;;;;;;;;9.67;9.67;;;;;;;;5049034;28;45654;-77
2023/06/25 12:30:29;;;;;;;;;13.00;9.33;;;;;;;;5051844;28;45610;-80
2023/06/25 12:32:55;;;;;;;;;9.33;9.33;;;;;;;;5048970;28;45739;-78
2023/06/25 12:35:21;;;;;;;;;9.00;9.00;;;;;;;;5047562;28;46038;-80
2023/06/25 12:37:47;;;;;;;;;9.33;8.33;;;;;;;;5052921;28;45625;-79
2023/06/25 12:40:12;;;;;;;;;9.00;9.00;;;;;;;;5048499;28;45521;-78
2023/06/25 12:42:37;;;;;;;;;13.00;11.67;;;;;;;;5048101;28;45979;-78
2023/06/25 12:45:03;;;;;;;;;9.33;8.33;;;;;;;;5047163;28;45616;-79
2023/06/25 12:47:28;;;;;;;;;8.67;8.67;;;;;;;;5041202;28;45529;-78
2023/06/25 12:49:53;;;;;;;;;7.33;7.33;;;;;;;;5045920;28;46123;-77
2023/06/25 12:52:18;;;;;;;;;9.00;9.00;;;;;;;;5047729;28;47128;-78
2023/06/25 12:54:44;;;;;;;;;10.33;10.33;;;;;;;;5040383;28;46592;-79
2023/06/25 12:57:09;;;;;;;;;13.33;13.33;;;;;;;;5037522;28;46005;-77
2023/06/25 12:59:35;;;;;;;;;11.00;11.00;;;;;;;;5050179;28;45844;-77
2023/06/25 13:02:00;;;;;;;;;10.67;10.67;;;;;;;;5049491;28;45587;-77
2023/06/25 13:04:25;;;;;;;;;10.33;9.00;;;;;;;;5044515;28;45888;-77
2023/06/25 13:06:50;;;;;;;;;11.67;9.67;;;;;;;;5049468;28;46591;-79
2023/06/25 13:09:16;;;;;;;;;11.00;11.00;;;;;;;;5043416;28;45840;-78
2023/06/25 13:11:41;;;;;;;;;10.67;9.67;;;;;;;;5044783;28;46001;-78
2023/06/25 13:14:06;;;;;;;;;10.67;9.33;;;;;;;;5045646;28;45851;-78
2023/06/25 13:16:31;;;;;;;;;12.67;10.00;;;;;;;;5047909;28;45883;-77
2023/06/25 13:18:57;;;;;;;;;9.33;8.33;;;;;;;;5036602;28;45590;-77
2023/06/25 13:21:22;;;;;;;;;11.00;8.00;;;;;;;;5046520;28;45862;-78
2023/06/25 13:23:47;;;;;;;;;9.00;9.00;;;;;;;;5056918;28;46378;-79
2023/06/25 13:26:13;;;;;;;;;12.00;12.00;;;;;;;;5034941;28;46212;-76
2023/06/25 13:28:38;;;;;;;;;12.00;10.67;;;;;;;;5028624;28;45537;-77
2023/06/25 13:31:03;;;;;;;;;10.67;9.00;;;;;;;;5046433;28;46759;-77
2023/06/25 13:33:29;;;;;;;;;11.00;11.00;;;;;;;;5049876;28;45495;-78
2023/06/25 13:35:54;;;;;;;;;11.33;9.67;;;;;;;;5048803;28;45501;-79
2023/06/25 13:38:19;;;;;;;;;10.00;10.00;;;;;;;;5031737;28;45531;-78
2023/06/25 13:40:44;;;;;;;;;10.67;7.00;;;;;;;;5050809;28;46033;-77
2023/06/25 13:43:10;;;;;;;;;11.33;9.33;;;;;;;;5030721;28;45435;-77
2023/06/25 13:45:36;;;;;;;;;11.00;9.33;;;;;;;;5050604;28;45450;-80
2023/06/25 13:48:01;;;;;;;;;12.00;10.00;;;;;;;;5029600;28;45823;-79
2023/06/25 13:50:26;;;;;;;;;10.00;9.67;;;;;;;;5048590;28;45501;-76
2023/06/25 13:52:51;;;;;;;;;8.00;8.00;;;;;;;;5050024;28;45605;-78
2023/06/25 13:55:17;;;;;;;;;7.67;7.67;;;;;;;;5030673;28;46207;-78
2023/06/25 13:57:42;;;;;;;;;12.33;11.33;;;;;;;;5047468;28;45821;-78
2023/06/25 14:00:08;;;;;;;;;8.67;8.67;;;;;;;;5037142;28;45729;-76
2023/06/25 14:02:33;;;;;;;;;8.33;7.00;;;;;;;;5046234;28;45665;-78
2023/06/25 14:04:58;;;;;;;;;9.33;7.00;;;;;;;;5050127;28;46127;-78
2023/06/25 14:07:23;;;;;;;;;7.00;6.00;;;;;;;;5046536;28;45756;-79
2023/06/25 14:09:49;;;;;;;;;6.67;6.33;;;;;;;;5048648;28;46422;-79
2023/06/25 14:12:14;;;;;;;;;8.67;7.00;;;;;;;;5046101;28;45501;-78
2023/06/25 14:14:39;;;;;;;;;9.67;9.67;;;;;;;;5050219;28;46262;-78
2023/06/25 14:17:05;;;;;;;;;7.33;7.33;;;;;;;;5030312;28;45474;-77
2023/06/25 14:19:30;;;;;;;;;7.00;7.00;;;;;;;;5047409;28;45501;-81
2023/06/25 14:21:55;;;;;;;;;9.00;9.00;;;;;;;;5047945;28;45524;-81
2023/06/25 14:24:22;;;;;;;;;14.67;12.67;;;;;;;;5043311;28;45496;-78
2023/06/25 14:26:47;;;;;;;;;10.00;10.00;;;;;;;;5027262;28;45803;-78
2023/06/25 14:29:12;;;;;;;;;9.67;9.67;;;;;;;;5044685;28;45422;-79
2023/06/25 14:31:38;;;;;;;;;9.00;9.00;;;;;;;;5045382;28;45563;-80
2023/06/25 14:34:04;;;;;;;;;10.33;9.00;;;;;;;;5032539;28;46272;-81
2023/06/25 14:36:29;;;;;;;;;10.67;10.00;;;;;;;;5033868;28;45444;-77
2023/06/25 14:38:54;;;;;;;;;11.33;11.00;;;;;;;;5052271;28;45387;-77
2023/06/25 14:41:19;;;;;;;;;13.33;11.00;;;;;;;;5048565;28;45851;-77
2023/06/25 14:43:44;;;;;;;;;10.00;9.00;;;;;;;;5049815;28;46330;-78
2023/06/25 14:46:10;;;;;;;;;10.33;9.67;;;;;;;;5056445;28;45776;-82
2023/06/25 14:48:35;;;;;;;;;8.67;8.67;;;;;;;;5050919;28;45771;-81
2023/06/25 14:51:00;;;;;;;;;12.00;10.00;;;;;;;;5044963;28;46237;-83
2023/06/25 14:53:26;;;;;;;;;8.33;8.00;;;;;;;;5043107;28;47689;-77
2023/06/25 14:55:51;;;;;;;;;10.00;10.00;;;;;;;;5049832;28;45693;-87
2023/06/25 14:58:16;;;;;;;;;10.00;8.00;;;;;;;;5064721;28;45426;-79
2023/06/25 15:00:41;;;;;;;;;10.00;9.00;;;;;;;;5046975;28;45778;-78
2023/06/25 15:03:10;;;;;;;;;10.00;10.00;;;;;;;;5032595;28;46277;-79
2023/06/25 15:05:35;;;;;;;;;10.67;9.00;;;;;;;;5022201;28;45561;-77
2023/06/25 15:08:00;;;;;;;;;9.67;7.67;;;;;;;;5032064;28;45762;-81
2023/06/25 15:10:25;;;;;;;;;12.00;10.00;;;;;;;;5043927;28;45598;-77
2023/06/25 15:12:51;;;;;;;;;10.67;9.33;;;;;;;;5052826;28;45561;-77
2023/06/25 15:15:16;;;;;;;;;10.67;8.67;;;;;;;;5040243;28;45821;-76
2023/06/25 15:17:41;;;;;;;;;14.00;10.33;;;;;;;;5048783;28;45846;-76
2023/06/25 15:20:07;;;;;;;;;9.67;9.67;;;;;;;;5033026;28;47376;-78
2023/06/25 15:22:32;;;;;;;;;10.67;10.67;;;;;;;;5026012;28;47226;-77
2023/06/25 15:24:58;;;;;;;;;14.33;11.33;;;;;;;;5050785;28;45853;-79
2023/06/25 15:27:23;;;;;;;;;8.25;7.75;;;;;;;;5051923;28;46545;-80
2023/06/25 15:29:48;;;;;;;;;10.00;10.00;;;;;;;;5050773;28;45839;-77
2023/06/25 15:32:13;;;;;;;;;10.67;8.33;;;;;;;;5050857;28;45722;-78
2023/06/25 15:34:39;;;;;;;;;9.67;9.67;;;;;;;;5048477;28;45391;-77
2023/06/25 15:37:05;;;;;;;;;11.00;11.00;;;;;;;;5026730;28;45734;-78
2023/06/25 15:39:30;;;;;;;;;12.33;10.00;;;;;;;;5040312;28;45509;-75
2023/06/25 15:41:56;;;;;;;;;10.00;10.00;;;;;;;;5047609;28;46268;-76
2023/06/25 15:44:21;;;;;;;;;11.67;10.00;;;;;;;;5020564;28;45755;-75
2023/06/25 15:46:46;;;;;;;;;8.33;8.33;;;;;;;;5032723;28;45863;-76
2023/06/25 15:49:12;;;;;;;;;10.67;9.67;;;;;;;;5034152;28;46755;-75
2023/06/25 15:51:38;;;;;;;;;11.00;11.00;;;;;;;;5050260;28;45646;-78
2023/06/25 15:54:04;;;;;;;;;10.33;10.00;;;;;;;;5048003;28;46024;-76
2023/06/25 15:56:29;;;;;;;;;10.33;10.33;;;;;;;;5029183;28;45675;-77
2023/06/25 15:58:54;;;;;;;;;11.33;10.00;;;;;;;;5041540;28;46020;-76
2023/06/25 16:01:19;;;;;;;;;12.33;10.00;;;;;;;;5046383;28;45633;-76
2023/06/25 16:03:45;;;;;;;;;12.67;10.00;;;;;;;;5052224;28;46132;-77
2023/06/25 16:06:10;;;;;;;;;12.00;9.00;;;;;;;;5043364;28;45462;-78
2023/06/25 16:08:35;;;;;;;;;11.67;9.00;;;;;;;;5046506;28;46046;-77
2023/06/25 16:11:01;;;;;;;;;11.00;10.00;;;;;;;;5035330;28;45561;-79
2023/06/25 16:13:26;;;;;;;;;10.00;10.00;;;;;;;;5048688;28;45921;-78
2023/06/25 16:15:51;;;;;;;;;10.33;9.00;;;;;;;;5032745;28;45976;-77
2023/06/25 16:18:16;;;;;;;;;11.67;11.67;;;;;;;;5043516;28;45930;-77
2023/06/25 16:20:42;;;;;;;;;22.67;20.33;;;;;;;;5031430;28;47632;-78
2023/06/25 16:23:08;;;;;;;;;11.33;11.33;;;;;;;;5030937;28;45884;-78
2023/06/25 16:25:34;;;;;;;;;18.67;18.00;;;;;;;;5048633;28;45605;-75
2023/06/25 16:28:03;;;;;;;;;21.67;20.67;;;;;;;;5049780;28;45849;-78
2023/06/25 16:30:28;;;;;;;;;24.00;21.00;;;;;;;;5049405;28;45899;-77
2023/06/25 16:32:55;;;;;;;;;24.67;23.33;;;;;;;;5049844;28;45810;-78
2023/06/25 16:35:20;;;;;;;;;20.00;20.00;;;;;;;;5049567;28;45446;-76
2023/06/25 16:37:46;;;;;;;;;14.00;14.00;;;;;;;;5046972;28;45426;-76
2023/06/25 16:40:11;;;;;;;;;15.00;12.67;;;;;;;;5033636;28;45952;-76
2023/06/25 16:42:36;;;;;;;;;20.00;18.67;;;;;;;;5048864;28;45868;-78
2023/06/25 16:45:02;;;;;;;;;39.00;31.33;;;;;;;;5048322;28;45462;-77
2023/06/25 16:47:27;;;;;;;;;17.00;13.33;;;;;;;;5051167;28;45748;-78
2023/06/25 16:49:52;;;;;;;;;30.33;25.67;;;;;;;;5055445;28;45932;-77
2023/06/25 16:52:18;;;;;;;;;18.33;17.00;;;;;;;;5049202;28;45977;-77
2023/06/25 16:54:43;;;;;;;;;20.67;20.67;;;;;;;;5049993;28;46227;-79
2023/06/25 16:57:08;;;;;;;;;13.00;12.00;;;;;;;;5030920;28;46583;-76
2023/06/25 16:59:33;;;;;;;;;12.00;9.67;;;;;;;;5049268;28;46709;-77
2023/06/25 17:02:05;;;;;;;;;23.67;23.00;;;;;;;;5029560;28;46068;-77
2023/06/25 17:04:37;;;;;;;;;13.67;11.00;;;;;;;;5029206;28;45457;-76
2023/06/25 17:07:05;;;;;;;;;16.67;16.00;;;;;;;;5036138;28;45505;-75
2023/06/25 17:09:31;;;;;;;;;15.33;13.33;;;;;;;;5048306;28;46056;-76
2023/06/25 17:11:56;;;;;;;;;8.67;8.67;;;;;;;;5030697;28;45972;-76
2023/06/25 17:14:21;;;;;;;;;21.00;18.33;;;;;;;;5049389;28;45919;-76
2023/06/25 17:16:47;;;;;;;;;12.67;11.33;;;;;;;;5030359;28;47263;-77
2023/06/25 17:19:12;;;;;;;;;17.00;17.00;;;;;;;;5041585;28;45480;-76
2023/06/25 17:21:38;;;;;;;;;19.67;17.00;;;;;;;;5047930;28;45562;-79
2023/06/25 17:24:03;;;;;;;;;15.00;14.67;;;;;;;;5048408;28;45342;-77
2023/06/25 17:26:28;;;;;;;;;22.67;21.33;;;;;;;;5045787;28;45787;-75
2023/06/25 17:28:53;;;;;;;;;18.33;17.00;;;;;;;;5047622;28;45765;-77
2023/06/25 17:31:20;;;;;;;;;20.00;15.67;;;;;;;;5047126;28;45609;-80
2023/06/25 17:33:45;;;;;;;;;16.67;16.67;;;;;;;;5049841;28;45684;-82
2023/06/25 17:36:10;;;;;;;;;24.67;19.33;;;;;;;;5051922;28;45509;-79
2023/06/25 17:38:36;;;;;;;;;17.67;14.00;;;;;;;;5039331;28;46471;-78
2023/06/25 17:41:01;;;;;;;;;27.33;23.67;;;;;;;;5042141;28;45636;-78
2023/06/25 17:43:26;;;;;;;;;26.67;25.33;;;;;;;;5034658;28;45502;-79
2023/06/25 17:45:51;;;;;;;;;12.67;12.00;;;;;;;;5024860;28;45721;-77
2023/06/25 17:48:17;;;;;;;;;17.33;13.67;;;;;;;;5023354;28;47327;-79
2023/06/25 17:50:42;;;;;;;;;14.67;11.67;;;;;;;;5040740;28;45683;-77
2023/06/25 17:53:07;;;;;;;;;9.33;9.00;;;;;;;;5025621;28;45427;-78
2023/06/25 17:55:33;;;;;;;;;17.67;14.00;;;;;;;;5021735;28;46119;-79
2023/06/25 17:57:58;;;;;;;;;15.33;11.67;;;;;;;;5038966;28;46069;-78
2023/06/25 18:00:23;;;;;;;;;15.33;12.33;;;;;;;;5036632;28;45810;-78
2023/06/25 18:02:48;;;;;;;;;6.33;6.33;;;;;;;;5022072;28;45900;-79
2023/06/25 18:05:14;;;;;;;;;14.00;14.00;;;;;;;;5038716;28;46085;-79
2023/06/25 18:07:39;;;;;;;;;12.25;11.25;;;;;;;;5029915;28;46478;-82
2023/06/25 18:10:05;;;;;;;;;16.67;12.33;;;;;;;;5027032;28;45864;-81
2023/06/25 18:12:30;;;;;;;;;11.67;10.00;;;;;;;;5035473;28;45990;-80
2023/06/25 18:14:55;;;;;;;;;11.33;11.33;;;;;;;;5053735;28;45855;-76
2023/06/25 18:17:21;;;;;;;;;11.67;11.67;;;;;;;;5043708;28;46152;-79
2023/06/25 18:19:46;;;;;;;;;13.33;12.00;;;;;;;;5028656;28;45821;-76
2023/06/25 18:22:12;;;;;;;;;15.33;13.00;;;;;;;;5049670;28;46327;-80
2023/06/25 18:24:37;;;;;;;;;11.25;10.25;;;;;;;;5048449;28;45781;-78
2023/06/25 18:27:03;;;;;;;;;13.00;12.00;;;;;;;;5033606;28;46170;-77
2023/06/25 18:29:28;;;;;;;;;11.00;11.00;;;;;;;;5023475;28;45828;-78
2023/06/25 18:31:54;;;;;;;;;12.67;11.00;;;;;;;;5042799;28;45734;-79
2023/06/25 18:34:19;;;;;;;;;12.67;11.00;;;;;;;;5029781;28;45482;-79
2023/06/25 18:36:47;;;;;;;;;12.00;11.67;;;;;;;;5038917;28;45776;-79
2023/06/25 18:39:12;;;;;;;;;11.00;11.00;;;;;;;;5050310;28;45661;-78
2023/06/25 18:41:38;;;;;;;;;14.00;13.00;;;;;;;;5044746;28;45949;-78
2023/06/25 18:44:03;;;;;;;;;11.67;11.67;;;;;;;;5048204;28;45766;-78
2023/06/25 18:46:28;;;;;;;;;11.67;11.67;;;;;;;;5042723;28;46096;-77
2023/06/25 18:48:56;;;;;;;;;12.00;11.00;;;;;;;;5046236;28;45902;-80
2023/06/25 18:51:27;;;;;;;;;12.67;10.00;;;;;;;;5014304;28;45433;-79
2023/06/25 18:53:53;;;;;;;;;11.33;11.33;;;;;;;;5034617;28;45838;-80
2023/06/25 18:56:18;;;;;;;;;11.67;10.33;;;;;;;;5043300;28;46197;-78
2023/06/25 18:58:44;;;;;;;;;10.33;10.33;;;;;;;;5044712;28;46539;-78
2023/06/25 19:01:09;;;;;;;;;13.33;13.33;;;;;;;;5034911;28;45996;-77
2023/06/25 19:03:36;;;;;;;;;12.00;12.00;;;;;;;;5034796;28;46111;-79
2023/06/25 19:06:01;;;;;;;;;12.00;11.00;;;;;;;;5038800;28;46933;-78
2023/06/25 19:08:26;;;;;;;;;12.33;11.33;;;;;;;;5044198;28;45785;-78
2023/06/25 19:10:52;;;;;;;;;9.33;9.33;;;;;;;;5032734;28;45811;-78
2023/06/25 19:13:18;;;;;;;;;12.00;11.00;;;;;;;;5035004;28;45784;-79
2023/06/25 19:15:43;;;;;;;;;12.67;11.67;;;;;;;;5034998;28;45704;-79
2023/06/25 19:18:09;;;;;;;;;15.00;15.00;;;;;;;;5039226;28;45800;-78
2023/06/25 19:20:34;;;;;;;;;10.00;10.00;;;;;;;;5041854;28;46050;-79
2023/06/25 19:22:59;;;;;;;;;13.67;13.67;;;;;;;;5043152;28;45927;-79
2023/06/25 19:25:24;;;;;;;;;18.00;13.67;;;;;;;;5033219;28;45939;-78
2023/06/25 19:27:51;;;;;;;;;12.67;12.67;;;;;;;;5043069;28;45760;-78
2023/06/25 19:30:16;;;;;;;;;12.33;11.33;;;;;;;;5030247;28;45524;-78
2023/06/25 19:32:41;;;;;;;;;20.00;17.67;;;;;;;;5037174;28;45789;-79
2023/06/25 19:35:07;;;;;;;;;12.67;10.67;;;;;;;;5034424;28;46587;-77
2023/06/25 19:37:32;;;;;;;;;11.33;9.67;;;;;;;;5041551;28;45840;-78
2023/06/25 19:40:03;;;;;;;;;12.00;9.33;;;;;;;;5046381;28;45844;-76
2023/06/25 19:42:29;;;;;;;;;13.33;11.67;;;;;;;;5045486;28;47237;-78
2023/06/25 19:44:54;;;;;;;;;11.00;9.67;;;;;;;;5029932;28;46623;-76
2023/06/25 19:47:21;;;;;;;;;7.00;7.00;;;;;;;;5030281;28;46006;-75
2023/06/25 19:49:46;;;;;;;;;10.67;9.00;;;;;;;;5047711;28;46628;-77
2023/06/25 19:52:12;;;;;;;;;11.33;10.33;;;;;;;;5027747;28;47040;-77
2023/06/25 19:54:37;;;;;;;;;10.33;10.33;;;;;;;;5018330;28;47756;-78
2023/06/25 19:57:03;;;;;;;;;14.67;11.33;;;;;;;;5046892;28;45510;-81
2023/06/25 19:59:28;;;;;;;;;8.00;8.00;;;;;;;;5038138;28;45682;-77
2023/06/25 20:01:53;;;;;;;;;6.00;6.00;;;;;;;;5043810;28;46003;-77
2023/06/25 20:04:20;;;;;;;;;14.33;11.33;;;;;;;;5045221;28;46007;-88
2023/06/25 20:06:48;;;;;;;;;10.00;8.67;;;;;;;;5050244;28;45430;-89
2023/06/25 20:09:14;;;;;;;;;9.33;7.00;;;;;;;;5059502;28;45794;-88
2023/06/25 20:11:59;;;;;;;;;8.67;8.67;;;;;;;;5057911;28;45879;-90
2023/06/25 20:17:41;;;;;;;;;5.67;5.67;;;;;;;;5065436;28;44809;-89
2023/06/25 20:23:53;;;;;;;;;15.67;10.00;;;;;;;;4990056;28;45988;-90
2023/06/25 20:27:01;;;;;;;;;;;;;;;;;;;;;
2023/06/25 20:39:11;;;;;;;;;10.33;10.33;;;;;;;;4895507;29;45113;-87
2023/06/25 20:41:54;;;;;;;;;;;;;;;;;;;;;
2023/06/25 20:48:04;;;;;;;;;10.67;9.67;;;;;;;;4844576;29;45801;-89
2023/06/25 20:54:22;;;;;;;;;14.00;12.67;;;;;;;;4867099;29;45749;-88
2023/06/25 21:00:55;;;;;;;;;;;;;;;;;;;;;